sensor_id;sensor_type;location;lat;lon;timestamp;pressure;altitude;pressure_sealevel;temperature;humidity
50368;BME280;36281;34.132;-118.018;2023-05-01T00:00:06;99651.50;;;23.76;49.97
50368;BME280;36281;34.132;-118.018;2023-05-01T00:02:38;99638.69;;;23.54;49.91
50368;BME280;36281;34.132;-118.018;2023-05-01T00:05:08;99653.31;;;23.53;50.60
50368;BME280;36281;34.132;-118.018;2023-05-01T00:07:37;99651.53;;;23.48;50.67
50368;BME280;36281;34.132;-118.018;2023-05-01T00:10:07;99650.53;;;23.44;50.72
50368;BME280;36281;34.132;-118.018;2023-05-01T00:12:36;99649.53;;;23.40;50.89
50368;BME280;36281;34.132;-118.018;2023-05-01T00:15:06;99653.81;;;23.27;51.10
50368;BME280;36281;34.132;-118.018;2023-05-01T00:17:37;99647.53;;;23.18;51.08
50368;BME280;36281;34.132;-118.018;2023-05-01T00:20:07;99643.13;;;23.08;51.37
50368;BME280;36281;34.132;-118.018;2023-05-01T00:22:37;99644.31;;;23.02;51.53
50368;BME280;36281;34.132;-118.018;2023-05-01T00:25:06;99648.53;;;22.94;52.26
50368;BME280;36281;34.132;-118.018;2023-05-01T00:27:36;99650.75;;;22.92;51.84
50368;BME280;36281;34.132;-118.018;2023-05-01T00:30:06;99649.19;;;22.86;52.07
50368;BME280;36281;34.132;-118.018;2023-05-01T00:32:37;99643.25;;;22.70;51.97
50368;BME280;36281;34.132;-118.018;2023-05-01T00:35:06;99642.25;;;22.53;52.38
50368;BME280;36281;34.132;-118.018;2023-05-01T00:37:36;99635.13;;;22.43;53.00
50368;BME280;36281;34.132;-118.018;2023-05-01T00:40:07;99642.28;;;22.34;53.07
50368;BME280;36281;34.132;-118.018;2023-05-01T00:42:36;99634.69;;;22.17;53.39
50368;BME280;36281;34.132;-118.018;2023-05-01T00:45:07;99638.06;;;22.09;54.10
50368;BME280;36281;34.132;-118.018;2023-05-01T00:47:38;99637.03;;;22.05;54.59
50368;BME280;36281;34.132;-118.018;2023-05-01T00:50:08;99641.41;;;22.01;54.57
50368;BME280;36281;34.132;-118.018;2023-05-01T00:52:37;99642.59;;;21.94;54.83
50368;BME280;36281;34.132;-118.018;2023-05-01T00:55:07;99634.34;;;21.86;54.90
50368;BME280;36281;34.132;-118.018;2023-05-01T00:57:36;99632.88;;;21.75;55.19
50368;BME280;36281;34.132;-118.018;2023-05-01T01:00:06;99628.22;;;21.61;55.47
50368;BME280;36281;34.132;-118.018;2023-05-01T01:02:41;99632.38;;;21.54;55.65
50368;BME280;36281;34.132;-118.018;2023-05-01T01:05:10;99627.31;;;21.47;55.99
50368;BME280;36281;34.132;-118.018;2023-05-01T01:07:48;99627.44;;;21.37;56.33
50368;BME280;36281;34.132;-118.018;2023-05-01T01:10:26;99632.91;;;21.32;56.58
50368;BME280;36281;34.132;-118.018;2023-05-01T01:13:03;99630.25;;;21.27;56.98
50368;BME280;36281;34.132;-118.018;2023-05-01T01:15:43;99627.97;;;21.15;56.86
50368;BME280;36281;34.132;-118.018;2023-05-01T01:18:19;99623.13;;;21.12;57.31
50368;BME280;36281;34.132;-118.018;2023-05-01T01:20:54;99628.34;;;21.03;57.42
50368;BME280;36281;34.132;-118.018;2023-05-01T01:26:50;99627.78;;;20.82;58.21
50368;BME280;36281;34.132;-118.018;2023-05-01T01:29:47;99634.66;;;20.70;58.36
50368;BME280;36281;34.132;-118.018;2023-05-01T01:32:26;99621.88;;;20.51;58.87
50368;BME280;36281;34.132;-118.018;2023-05-01T01:35:02;99635.41;;;20.41;59.73
50368;BME280;36281;34.132;-118.018;2023-05-01T01:37:39;99630.63;;;20.33;59.74
50368;BME280;36281;34.132;-118.018;2023-05-01T01:40:12;99629.38;;;20.20;60.08
50368;BME280;36281;34.132;-118.018;2023-05-01T01:42:50;99635.41;;;20.07;60.34
50368;BME280;36281;34.132;-118.018;2023-05-01T01:45:21;99636.81;;;19.99;60.95
50368;BME280;36281;34.132;-118.018;2023-05-01T01:47:52;99635.25;;;19.88;61.14
50368;BME280;36281;34.132;-118.018;2023-05-01T01:50:25;99647.66;;;19.79;61.43
50368;BME280;36281;34.132;-118.018;2023-05-01T01:52:59;99649.88;;;19.67;62.17
50368;BME280;36281;34.132;-118.018;2023-05-01T01:55:30;99648.28;;;19.66;62.36
50368;BME280;36281;34.132;-118.018;2023-05-01T01:58:02;99638.09;;;19.52;62.59
50368;BME280;36281;34.132;-118.018;2023-05-01T02:00:34;99662.53;;;19.56;62.97
50368;BME280;36281;34.132;-118.018;2023-05-01T02:03:03;99662.03;;;19.44;63.09
50368;BME280;36281;34.132;-118.018;2023-05-01T02:05:35;99657.78;;;19.37;63.48
50368;BME280;36281;34.132;-118.018;2023-05-01T02:08:07;99663.94;;;19.38;63.74
50368;BME280;36281;34.132;-118.018;2023-05-01T02:10:37;99667.19;;;19.35;63.51
50368;BME280;36281;34.132;-118.018;2023-05-01T02:13:08;99657.53;;;19.24;63.64
50368;BME280;36281;34.132;-118.018;2023-05-01T02:15:39;99672.03;;;19.28;63.96
50368;BME280;36281;34.132;-118.018;2023-05-01T02:18:11;99664.28;;;19.21;64.11
50368;BME280;36281;34.132;-118.018;2023-05-01T02:20:43;99671.00;;;19.14;64.25
50368;BME280;36281;34.132;-118.018;2023-05-01T02:23:13;99664.56;;;19.04;64.39
50368;BME280;36281;34.132;-118.018;2023-05-01T02:25:43;99661.91;;;18.94;64.73
50368;BME280;36281;34.132;-118.018;2023-05-01T02:28:14;99671.06;;;18.88;64.88
50368;BME280;36281;34.132;-118.018;2023-05-01T02:30:50;99674.84;;;18.77;65.21
50368;BME280;36281;34.132;-118.018;2023-05-01T02:33:20;99668.09;;;18.64;65.80
50368;BME280;36281;34.132;-118.018;2023-05-01T02:35:50;99667.06;;;18.55;66.13
50368;BME280;36281;34.132;-118.018;2023-05-01T02:38:19;99675.09;;;18.50;66.64
50368;BME280;36281;34.132;-118.018;2023-05-01T02:40:51;99671.88;;;18.48;67.05
50368;BME280;36281;34.132;-118.018;2023-05-01T02:43:21;99666.78;;;18.46;67.17
50368;BME280;36281;34.132;-118.018;2023-05-01T02:45:51;99672.94;;;18.42;67.38
50368;BME280;36281;34.132;-118.018;2023-05-01T02:48:23;99666.50;;;18.38;67.52
50368;BME280;36281;34.132;-118.018;2023-05-01T02:50:56;99669.47;;;18.31;67.68
50368;BME280;36281;34.132;-118.018;2023-05-01T02:53:26;99670.25;;;18.26;68.17
50368;BME280;36281;34.132;-118.018;2023-05-01T02:55:55;99674.53;;;18.27;68.26
50368;BME280;36281;34.132;-118.018;2023-05-01T02:58:24;99682.31;;;18.24;68.44
50368;BME280;36281;34.132;-118.018;2023-05-01T03:00:54;99684.72;;;18.20;68.65
50368;BME280;36281;34.132;-118.018;2023-05-01T03:03:23;99686.31;;;18.16;68.67
50368;BME280;36281;34.132;-118.018;2023-05-01T03:05:52;99679.09;;;18.12;68.88
50368;BME280;36281;34.132;-118.018;2023-05-01T03:08:22;99688.72;;;18.07;68.98
50368;BME280;36281;34.132;-118.018;2023-05-01T03:10:52;99680.16;;;18.05;69.29
50368;BME280;36281;34.132;-118.018;2023-05-01T03:13:21;99680.66;;;18.02;69.34
50368;BME280;36281;34.132;-118.018;2023-05-01T03:15:50;99686.03;;;17.97;69.36
50368;BME280;36281;34.132;-118.018;2023-05-01T03:18:19;99696.72;;;17.92;69.65
50368;BME280;36281;34.132;-118.018;2023-05-01T03:20:52;99689.75;;;17.86;69.80
50368;BME280;36281;34.132;-118.018;2023-05-01T03:23:22;99689.47;;;17.88;69.71
50368;BME280;36281;34.132;-118.018;2023-05-01T03:25:52;99706.88;;;17.85;70.02
50368;BME280;36281;34.132;-118.018;2023-05-01T03:28:22;99711.16;;;17.81;70.04
50368;BME280;36281;34.132;-118.018;2023-05-01T03:30:51;99710.59;;;17.79;70.31
50368;BME280;36281;34.132;-118.018;2023-05-01T03:33:20;99716.22;;;17.77;70.53
50368;BME280;36281;34.132;-118.018;2023-05-01T03:35:58;99717.25;;;17.71;70.54
50368;BME280;36281;34.132;-118.018;2023-05-01T03:38:30;99720.19;;;17.70;70.74
50368;BME280;36281;34.132;-118.018;2023-05-01T03:40:59;99720.72;;;17.67;70.66
50368;BME280;36281;34.132;-118.018;2023-05-01T03:43:28;99712.41;;;17.68;70.83
50368;BME280;36281;34.132;-118.018;2023-05-01T03:45:57;99716.97;;;17.68;70.71
50368;BME280;36281;34.132;-118.018;2023-05-01T03:48:26;99719.13;;;17.66;70.73
50368;BME280;36281;34.132;-118.018;2023-05-01T03:50:55;99712.66;;;17.62;70.71
50368;BME280;36281;34.132;-118.018;2023-05-01T03:53:25;99728.78;;;17.72;70.60
50368;BME280;36281;34.132;-118.018;2023-05-01T03:55:56;99722.31;;;17.68;70.58
50368;BME280;36281;34.132;-118.018;2023-05-01T03:58:25;99729.56;;;17.67;70.57
50368;BME280;36281;34.132;-118.018;2023-05-01T04:00:55;99730.09;;;17.69;70.62
50368;BME280;36281;34.132;-118.018;2023-05-01T04:03:25;99728.75;;;17.67;70.56
50368;BME280;36281;34.132;-118.018;2023-05-01T04:05:55;99732.19;;;17.57;70.70
50368;BME280;36281;34.132;-118.018;2023-05-01T04:08:25;99730.81;;;17.54;70.88
50368;BME280;36281;34.132;-118.018;2023-05-01T04:10:55;99733.47;;;17.49;71.08
50368;BME280;36281;34.132;-118.018;2023-05-01T04:13:24;99732.38;;;17.45;71.37
50368;BME280;36281;34.132;-118.018;2023-05-01T04:15:53;99723.25;;;17.36;71.83
50368;BME280;36281;34.132;-118.018;2023-05-01T04:18:25;99736.41;;;17.43;71.81
50368;BME280;36281;34.132;-118.018;2023-05-01T04:20:54;99738.00;;;17.44;71.72
50368;BME280;36281;34.132;-118.018;2023-05-01T04:23:23;99733.44;;;17.44;71.82
50368;BME280;36281;34.132;-118.018;2023-05-01T04:25:52;99731.34;;;17.46;71.99
50368;BME280;36281;34.132;-118.018;2023-05-01T04:28:22;99740.97;;;17.47;72.05
50368;BME280;36281;34.132;-118.018;2023-05-01T04:30:51;99730.78;;;17.49;71.69
50368;BME280;36281;34.132;-118.018;2023-05-01T04:33:21;99742.31;;;17.50;71.57
50368;BME280;36281;34.132;-118.018;2023-05-01T04:35:50;99738.31;;;17.47;71.71
50368;BME280;36281;34.132;-118.018;2023-05-01T04:38:19;99737.50;;;17.47;71.64
50368;BME280;36281;34.132;-118.018;2023-05-01T04:40:48;99724.63;;;17.44;71.75
50368;BME280;36281;34.132;-118.018;2023-05-01T04:43:17;99732.66;;;17.44;71.95
50368;BME280;36281;34.132;-118.018;2023-05-01T04:45:47;99741.75;;;17.43;71.93
50368;BME280;36281;34.132;-118.018;2023-05-01T04:48:16;99739.06;;;17.43;72.04
50368;BME280;36281;34.132;-118.018;2023-05-01T04:50:46;99739.59;;;17.40;72.21
50368;BME280;36281;34.132;-118.018;2023-05-01T04:53:15;99740.66;;;17.39;72.25
50368;BME280;36281;34.132;-118.018;2023-05-01T04:55:45;99739.84;;;17.38;72.21
50368;BME280;36281;34.132;-118.018;2023-05-01T04:58:14;99728.81;;;17.29;72.45
50368;BME280;36281;34.132;-118.018;2023-05-01T05:00:43;99746.81;;;17.39;72.29
50368;BME280;36281;34.132;-118.018;2023-05-01T05:03:13;99746.81;;;17.39;72.15
50368;BME280;36281;34.132;-118.018;2023-05-01T05:05:46;99743.06;;;17.40;71.89
50368;BME280;36281;34.132;-118.018;2023-05-01T05:08:15;99756.22;;;17.42;71.87
50368;BME280;36281;34.132;-118.018;2023-05-01T05:10:44;99748.41;;;17.40;71.62
50368;BME280;36281;34.132;-118.018;2023-05-01T05:13:13;99743.88;;;17.36;71.53
50368;BME280;36281;34.132;-118.018;2023-05-01T05:15:43;99754.84;;;17.39;71.49
50368;BME280;36281;34.132;-118.018;2023-05-01T05:18:13;99757.50;;;17.39;71.32
50368;BME280;36281;34.132;-118.018;2023-05-01T05:20:42;99743.59;;;17.37;71.40
50368;BME280;36281;34.132;-118.018;2023-05-01T05:23:11;99751.06;;;17.35;71.38
50368;BME280;36281;34.132;-118.018;2023-05-01T05:25:41;99744.88;;;17.29;71.32
50368;BME280;36281;34.132;-118.018;2023-05-01T05:28:10;99744.34;;;17.27;71.31
50368;BME280;36281;34.132;-118.018;2023-05-01T05:30:38;99740.28;;;17.25;71.48
50368;BME280;36281;34.132;-118.018;2023-05-01T05:33:08;99739.22;;;17.21;71.64
50368;BME280;36281;34.132;-118.018;2023-05-01T05:35:42;99742.44;;;17.23;71.60
50368;BME280;36281;34.132;-118.018;2023-05-01T05:38:11;99733.28;;;17.14;71.50
50368;BME280;36281;34.132;-118.018;2023-05-01T05:40:41;99740.84;;;17.22;71.10
50368;BME280;36281;34.132;-118.018;2023-05-01T05:43:10;99738.16;;;17.22;70.96
50368;BME280;36281;34.132;-118.018;2023-05-01T05:45:40;99732.78;;;17.17;70.86
50368;BME280;36281;34.132;-118.018;2023-05-01T05:48:09;99718.53;;;17.06;70.53
50368;BME280;36281;34.132;-118.018;2023-05-01T05:50:40;99736.28;;;17.22;70.27
50368;BME280;36281;34.132;-118.018;2023-05-01T05:53:09;99735.47;;;17.22;70.40
50368;BME280;36281;34.132;-118.018;2023-05-01T05:55:39;99723.16;;;17.21;70.15
50368;BME280;36281;34.132;-118.018;2023-05-01T05:58:08;99729.03;;;17.18;70.04
50368;BME280;36281;34.132;-118.018;2023-05-01T06:00:37;99733.84;;;17.16;69.98
50368;BME280;36281;34.132;-118.018;2023-05-01T06:03:06;99724.19;;;17.15;70.02
50368;BME280;36281;34.132;-118.018;2023-05-01T06:05:35;99728.50;;;17.16;69.83
50368;BME280;36281;34.132;-118.018;2023-05-01T06:08:06;99721.25;;;17.16;69.51
50368;BME280;36281;34.132;-118.018;2023-05-01T06:10:38;99723.38;;;17.14;69.44
50368;BME280;36281;34.132;-118.018;2023-05-01T06:13:09;99721.78;;;17.13;69.62
50368;BME280;36281;34.132;-118.018;2023-05-01T06:15:41;99726.31;;;17.13;69.35
50368;BME280;36281;34.132;-118.018;2023-05-01T06:18:11;99733.81;;;17.11;69.41
50368;BME280;36281;34.132;-118.018;2023-05-01T06:20:40;99737.03;;;17.13;69.51
50368;BME280;36281;34.132;-118.018;2023-05-01T06:23:11;99723.56;;;17.02;69.66
50368;BME280;36281;34.132;-118.018;2023-05-01T06:25:41;99734.31;;;17.08;69.72
50368;BME280;36281;34.132;-118.018;2023-05-01T06:28:10;99721.19;;;17.06;69.93
50368;BME280;36281;34.132;-118.018;2023-05-01T06:30:39;99715.56;;;17.02;70.03
50368;BME280;36281;34.132;-118.018;2023-05-01T06:33:08;99718.50;;;17.01;70.46
50368;BME280;36281;34.132;-118.018;2023-05-01T06:35:39;99717.94;;;16.99;70.43
50368;BME280;36281;34.132;-118.018;2023-05-01T06:38:10;99714.44;;;16.98;70.68
50368;BME280;36281;34.132;-118.018;2023-05-01T06:40:39;99722.75;;;16.97;70.95
50368;BME280;36281;34.132;-118.018;2023-05-01T06:43:09;99723.53;;;16.97;70.96
50368;BME280;36281;34.132;-118.018;2023-05-01T06:45:38;99717.38;;;16.97;71.11
50368;BME280;36281;34.132;-118.018;2023-05-01T06:48:08;99713.66;;;16.98;71.05
50368;BME280;36281;34.132;-118.018;2023-05-01T06:50:37;99715.78;;;16.96;70.97
50368;BME280;36281;34.132;-118.018;2023-05-01T06:53:06;99711.75;;;16.93;71.17
50368;BME280;36281;34.132;-118.018;2023-05-01T06:55:37;99718.69;;;16.94;71.16
50368;BME280;36281;34.132;-118.018;2023-05-01T06:58:06;99706.34;;;16.88;71.20
50368;BME280;36281;34.132;-118.018;2023-05-01T07:00:51;99708.78;;;16.95;71.69
50368;BME280;36281;34.132;-118.018;2023-05-01T07:03:20;99711.22;;;16.96;71.64
50368;BME280;36281;34.132;-118.018;2023-05-01T07:05:49;99710.94;;;16.93;71.52
50368;BME280;36281;34.132;-118.018;2023-05-01T07:08:18;99703.41;;;16.90;71.25
50368;BME280;36281;34.132;-118.018;2023-05-01T07:10:49;99713.28;;;16.84;71.34
50368;BME280;36281;34.132;-118.018;2023-05-01T07:13:18;99705.25;;;16.84;71.59
50368;BME280;36281;34.132;-118.018;2023-05-01T07:15:47;99701.47;;;16.80;71.53
50368;BME280;36281;34.132;-118.018;2023-05-01T07:18:18;99703.88;;;16.76;71.85
50368;BME280;36281;34.132;-118.018;2023-05-01T07:20:47;99701.97;;;16.72;71.83
50368;BME280;36281;34.132;-118.018;2023-05-01T07:23:17;99702.44;;;16.69;71.63
50368;BME280;36281;34.132;-118.018;2023-05-01T07:25:48;99702.69;;;16.67;71.87
50368;BME280;36281;34.132;-118.018;2023-05-01T07:28:17;99683.63;;;16.59;71.91
50368;BME280;36281;34.132;-118.018;2023-05-01T07:30:47;99702.69;;;16.67;71.95
50368;BME280;36281;34.132;-118.018;2023-05-01T07:33:17;99701.09;;;16.66;71.81
50368;BME280;36281;34.132;-118.018;2023-05-01T07:35:46;99681.72;;;16.54;71.78
50368;BME280;36281;34.132;-118.018;2023-05-01T07:38:15;99700.22;;;16.61;71.64
50368;BME280;36281;34.132;-118.018;2023-05-01T07:40:44;99700.75;;;16.58;71.68
50368;BME280;36281;34.132;-118.018;2023-05-01T07:43:15;99700.19;;;16.55;71.77
50368;BME280;36281;34.132;-118.018;2023-05-01T07:45:53;99693.78;;;16.57;71.76
50368;BME280;36281;34.132;-118.018;2023-05-01T07:48:24;99697.50;;;16.55;71.83
50368;BME280;36281;34.132;-118.018;2023-05-01T07:50:54;99689.69;;;16.49;71.70
50368;BME280;36281;34.132;-118.018;2023-05-01T07:53:24;99701.25;;;16.54;71.81
50368;BME280;36281;34.132;-118.018;2023-05-01T07:55:53;99696.97;;;16.53;71.84
50368;BME280;36281;34.132;-118.018;2023-05-01T07:58:24;99697.47;;;16.50;72.15
50368;BME280;36281;34.132;-118.018;2023-05-01T08:00:53;99695.84;;;16.49;72.20
50368;BME280;36281;34.132;-118.018;2023-05-01T08:03:22;99681.59;;;16.39;72.70
50368;BME280;36281;34.132;-118.018;2023-05-01T08:05:52;99696.91;;;16.48;72.47
50368;BME280;36281;34.132;-118.018;2023-05-01T08:08:21;99683.56;;;16.48;72.66
50368;BME280;36281;34.132;-118.018;2023-05-01T08:10:51;99688.34;;;16.46;72.98
50368;BME280;36281;34.132;-118.018;2023-05-01T08:13:20;99684.84;;;16.46;73.01
50368;BME280;36281;34.132;-118.018;2023-05-01T08:15:51;99682.97;;;16.41;73.28
50368;BME280;36281;34.132;-118.018;2023-05-01T08:18:20;99682.13;;;16.41;73.73
50368;BME280;36281;34.132;-118.018;2023-05-01T08:20:49;99671.22;;;16.42;73.89
50368;BME280;36281;34.132;-118.018;2023-05-01T08:23:18;99667.97;;;16.40;74.17
50368;BME280;36281;34.132;-118.018;2023-05-01T08:25:48;99669.03;;;16.39;74.27
50368;BME280;36281;34.132;-118.018;2023-05-01T08:28:19;99659.91;;;16.35;74.31
50368;BME280;36281;34.132;-118.018;2023-05-01T08:30:50;99654.03;;;16.33;74.67
50368;BME280;36281;34.132;-118.018;2023-05-01T08:33:19;99657.81;;;16.37;74.84
50368;BME280;36281;34.132;-118.018;2023-05-01T08:35:48;99657.00;;;16.37;75.12
50368;BME280;36281;34.132;-118.018;2023-05-01T08:38:17;99658.31;;;16.34;75.31
50368;BME280;36281;34.132;-118.018;2023-05-01T08:40:50;99652.97;;;16.34;75.43
50368;BME280;36281;34.132;-118.018;2023-05-01T08:43:22;99660.19;;;16.34;75.30
50368;BME280;36281;34.132;-118.018;2023-05-01T08:45:53;99656.69;;;16.33;75.04
50368;BME280;36281;34.132;-118.018;2023-05-01T08:48:24;99659.88;;;16.30;75.32
50368;BME280;36281;34.132;-118.018;2023-05-01T08:50:56;99639.22;;;16.20;75.60
50368;BME280;36281;34.132;-118.018;2023-05-01T08:53:28;99636.25;;;16.17;75.68
50368;BME280;36281;34.132;-118.018;2023-05-01T08:55:59;99650.47;;;16.22;76.02
50368;BME280;36281;34.132;-118.018;2023-05-01T08:58:29;99648.28;;;16.19;76.41
50368;BME280;36281;34.132;-118.018;2023-05-01T09:01:02;99644.56;;;16.20;76.87
50368;BME280;36281;34.132;-118.018;2023-05-01T09:03:31;99642.94;;;16.19;77.10
50368;BME280;36281;34.132;-118.018;2023-05-01T09:06:02;99638.41;;;16.20;77.68
50368;BME280;36281;34.132;-118.018;2023-05-01T09:08:31;99628.75;;;16.14;77.91
50368;BME280;36281;34.132;-118.018;2023-05-01T09:11:00;99639.97;;;16.16;78.32
50368;BME280;36281;34.132;-118.018;2023-05-01T09:13:30;99634.63;;;16.16;78.65
50368;BME280;36281;34.132;-118.018;2023-05-01T09:16:02;99639.16;;;16.15;78.59
50368;BME280;36281;34.132;-118.018;2023-05-01T09:18:33;99632.22;;;16.14;78.82
50368;BME280;36281;34.132;-118.018;2023-05-01T09:21:03;99630.88;;;16.12;79.40
50368;BME280;36281;34.132;-118.018;2023-05-01T09:23:32;99627.63;;;16.10;79.39
50368;BME280;36281;34.132;-118.018;2023-05-01T09:26:04;99626.03;;;16.09;79.79
50368;BME280;36281;34.132;-118.018;2023-05-01T09:28:41;99620.69;;;16.09;80.45
50368;BME280;36281;34.132;-118.018;2023-05-01T09:31:27;99615.28;;;16.03;80.97
50368;BME280;36281;34.132;-118.018;2023-05-01T09:33:58;99613.69;;;16.02;81.26
50368;BME280;36281;34.132;-118.018;2023-05-01T09:36:28;99613.41;;;16.04;81.15
50368;BME280;36281;34.132;-118.018;2023-05-01T09:38:59;99606.13;;;15.94;81.22
50368;BME280;36281;34.132;-118.018;2023-05-01T09:41:28;99606.16;;;15.99;81.64
50368;BME280;36281;34.132;-118.018;2023-05-01T09:44:00;99614.19;;;15.99;82.22
50368;BME280;36281;34.132;-118.018;2023-05-01T09:46:40;99588.44;;;15.88;82.30
50368;BME280;36281;34.132;-118.018;2023-05-01T09:49:11;99611.78;;;15.98;82.58
50368;BME280;36281;34.132;-118.018;2023-05-01T09:51:40;99607.72;;;15.95;82.79
50368;BME280;36281;34.132;-118.018;2023-05-01T09:54:17;99605.81;;;15.91;82.56
50368;BME280;36281;34.132;-118.018;2023-05-01T09:56:48;99603.97;;;15.91;82.40
50368;BME280;36281;34.132;-118.018;2023-05-01T09:59:18;99596.34;;;15.78;82.54
50368;BME280;36281;34.132;-118.018;2023-05-01T10:01:49;99604.69;;;15.82;83.17
50368;BME280;36281;34.132;-118.018;2023-05-01T10:04:29;99600.94;;;15.83;83.70
50368;BME280;36281;34.132;-118.018;2023-05-01T10:07:09;99598.50;;;15.81;83.25
50368;BME280;36281;34.132;-118.018;2023-05-01T10:09:39;99594.75;;;15.77;82.64
50368;BME280;36281;34.132;-118.018;2023-05-01T10:12:09;99594.97;;;15.75;83.10
50368;BME280;36281;34.132;-118.018;2023-05-01T10:14:50;99592.38;;;15.81;83.01
50368;BME280;36281;34.132;-118.018;2023-05-01T10:17:21;99590.75;;;15.80;82.90
50368;BME280;36281;34.132;-118.018;2023-05-01T10:19:50;99580.88;;;15.80;83.06
50368;BME280;36281;34.132;-118.018;2023-05-01T10:22:20;99577.41;;;15.80;83.52
50368;BME280;36281;34.132;-118.018;2023-05-01T10:24:50;99574.44;;;15.76;83.55
50368;BME280;36281;34.132;-118.018;2023-05-01T10:27:19;99575.50;;;15.75;83.65
50368;BME280;36281;34.132;-118.018;2023-05-01T10:29:52;99569.59;;;15.73;83.55
50368;BME280;36281;34.132;-118.018;2023-05-01T10:32:23;99571.47;;;15.72;83.70
50368;BME280;36281;34.132;-118.018;2023-05-01T10:35:00;99567.44;;;15.70;83.49
50368;BME280;36281;34.132;-118.018;2023-05-01T10:37:37;99573.03;;;15.68;83.44
50368;BME280;36281;34.132;-118.018;2023-05-01T10:40:44;99573.34;;;15.72;83.99
50368;BME280;36281;34.132;-118.018;2023-05-01T10:43:18;99569.88;;;15.71;83.90
50368;BME280;36281;34.132;-118.018;2023-05-01T10:45:48;99566.63;;;15.69;84.19
50368;BME280;36281;34.132;-118.018;2023-05-01T10:48:57;99574.31;;;15.66;83.77
50368;BME280;36281;34.132;-118.018;2023-05-01T10:51:26;99571.91;;;15.64;82.83
50368;BME280;36281;34.132;-118.018;2023-05-01T10:54:26;99569.47;;;15.63;83.10
50368;BME280;36281;34.132;-118.018;2023-05-01T10:56:57;99569.72;;;15.61;82.54
50368;BME280;36281;34.132;-118.018;2023-05-01T10:59:27;99574.25;;;15.61;82.64
50368;BME280;36281;34.132;-118.018;2023-05-01T11:02:25;99582.59;;;15.64;83.09
50368;BME280;36281;34.132;-118.018;2023-05-01T11:04:56;99579.13;;;15.64;83.02
50368;BME280;36281;34.132;-118.018;2023-05-01T11:07:25;99582.81;;;15.63;82.23
50368;BME280;36281;34.132;-118.018;2023-05-01T11:09:55;99580.72;;;15.65;82.70
50368;BME280;36281;34.132;-118.018;2023-05-01T11:12:49;99580.50;;;15.66;82.96
50368;BME280;36281;34.132;-118.018;2023-05-01T11:15:28;99581.00;;;15.63;82.52
50368;BME280;36281;34.132;-118.018;2023-05-01T11:17:58;99578.06;;;15.65;83.19
50368;BME280;36281;34.132;-118.018;2023-05-01T11:20:48;99574.00;;;15.62;83.82
50368;BME280;36281;34.132;-118.018;2023-05-01T11:23:21;99575.66;;;15.63;83.44
50368;BME280;36281;34.132;-118.018;2023-05-01T11:26:03;99568.69;;;15.62;83.51
50368;BME280;36281;34.132;-118.018;2023-05-01T11:28:33;99568.69;;;15.62;83.28
50368;BME280;36281;34.132;-118.018;2023-05-01T11:31:03;99572.97;;;15.63;82.95
50368;BME280;36281;34.132;-118.018;2023-05-01T11:33:32;99569.47;;;15.63;82.76
50368;BME280;36281;34.132;-118.018;2023-05-01T11:36:04;99567.38;;;15.65;82.68
50368;BME280;36281;34.132;-118.018;2023-05-01T11:38:33;99567.38;;;15.65;82.86
50368;BME280;36281;34.132;-118.018;2023-05-01T11:41:02;99569.47;;;15.63;82.95
50368;BME280;36281;34.132;-118.018;2023-05-01T11:43:31;99571.13;;;15.64;82.90
50368;BME280;36281;34.132;-118.018;2023-05-01T11:46:01;99564.53;;;15.49;82.42
50368;BME280;36281;34.132;-118.018;2023-05-01T11:48:31;99577.97;;;15.60;82.46
50368;BME280;36281;34.132;-118.018;2023-05-01T11:51:02;99572.63;;;15.60;81.86
50368;BME280;36281;34.132;-118.018;2023-05-01T11:53:39;99579.03;;;15.59;81.90
50368;BME280;36281;34.132;-118.018;2023-05-01T11:56:19;99573.16;;;15.57;82.36
50368;BME280;36281;34.132;-118.018;2023-05-01T11:58:54;99561.88;;;15.49;83.28
50368;BME280;36281;34.132;-118.018;2023-05-01T12:01:33;99562.44;;;15.51;83.33
50368;BME280;36281;34.132;-118.018;2023-05-01T12:04:04;99561.91;;;15.55;83.46
50368;BME280;36281;34.132;-118.018;2023-05-01T12:06:38;99557.91;;;15.52;83.34
50368;BME280;36281;34.132;-118.018;2023-05-01T12:09:14;99565.69;;;15.59;83.34
50368;BME280;36281;34.132;-118.018;2023-05-01T12:11:45;99560.63;;;15.57;83.21
50368;BME280;36281;34.132;-118.018;2023-05-01T12:14:17;99558.44;;;15.54;83.12
50368;BME280;36281;34.132;-118.018;2023-05-01T12:16:47;99554.66;;;15.50;83.22
50368;BME280;36281;34.132;-118.018;2023-05-01T12:19:17;99560.63;;;15.57;83.06
50368;BME280;36281;34.132;-118.018;2023-05-01T12:22:04;99558.75;;;15.58;83.25
50368;BME280;36281;34.132;-118.018;2023-05-01T12:24:34;99555.81;;;15.59;83.25
50368;BME280;36281;34.132;-118.018;2023-05-01T12:27:03;99553.97;;;15.60;83.55
50368;BME280;36281;34.132;-118.018;2023-05-01T12:29:39;99555.56;;;15.61;83.79
50368;BME280;36281;34.132;-118.018;2023-05-01T12:32:14;99557.69;;;15.59;84.11
50368;BME280;36281;34.132;-118.018;2023-05-01T12:34:44;99555.03;;;15.59;84.44
50368;BME280;36281;34.132;-118.018;2023-05-01T12:37:15;99561.69;;;15.61;85.27
50368;BME280;36281;34.132;-118.018;2023-05-01T12:39:44;99563.84;;;15.59;85.81
50368;BME280;36281;34.132;-118.018;2023-05-01T12:42:14;99560.91;;;15.61;86.41
50368;BME280;36281;34.132;-118.018;2023-05-01T12:44:44;99559.81;;;15.57;86.96
50368;BME280;36281;34.132;-118.018;2023-05-01T12:47:13;99561.59;;;15.51;87.27
50368;BME280;36281;34.132;-118.018;2023-05-01T12:49:43;99561.81;;;15.44;87.62
50368;BME280;36281;34.132;-118.018;2023-05-01T12:52:14;99559.09;;;15.39;88.16
50368;BME280;36281;34.132;-118.018;2023-05-01T12:54:43;99560.91;;;15.34;88.68